createdAt,value
2022-08-26T00:01:54.248Z,13.73
2022-08-26T00:04:23.829Z,13.63
2022-08-26T00:06:51.792Z,14.35
2022-08-26T00:09:19.376Z,14.57
2022-08-26T00:11:46.608Z,15.20
2022-08-26T00:14:16.533Z,13.80
2022-08-26T00:16:47.838Z,13.45
2022-08-26T00:19:20.963Z,13.32
2022-08-26T00:21:50.078Z,15.55
2022-08-26T00:24:20.492Z,13.90
2022-08-26T00:26:49.247Z,14.27
2022-08-26T00:29:17.293Z,14.05
2022-08-26T00:31:45.092Z,12.77
2022-08-26T00:34:13.912Z,14.13
2022-08-26T00:36:41.177Z,12.63
2022-08-26T00:39:09.397Z,12.70
2022-08-26T00:41:40.518Z,13.70
2022-08-26T00:44:11.230Z,12.45
2022-08-26T00:46:49.463Z,12.25
2022-08-26T00:49:42.992Z,13.52
2022-08-26T00:52:15.983Z,12.88
2022-08-26T00:55:00.805Z,12.50
2022-08-26T00:57:32.097Z,13.13
2022-08-26T01:00:01.523Z,13.32
2022-08-26T01:02:29.492Z,13.55
2022-08-26T01:05:00.905Z,13.75
2022-08-26T01:07:32.309Z,12.45
2022-08-26T01:10:05.899Z,12.95
2022-08-26T01:12:40.163Z,12.85
2022-08-26T01:15:10.384Z,13.20
2022-08-26T01:17:39.699Z,12.45
2022-08-26T01:20:17.987Z,13.75
2022-08-26T01:22:54.165Z,12.25
2022-08-26T01:25:24.253Z,13.27
2022-08-26T01:27:52.674Z,13.52
2022-08-26T01:30:21.170Z,14.27
2022-08-26T01:32:50.616Z,13.57
2022-08-26T01:35:18.472Z,12.68
2022-08-26T01:37:48.225Z,14.65
2022-08-26T01:40:20.597Z,15.00
2022-08-26T01:42:49.325Z,12.43
2022-08-26T01:45:26.324Z,13.10
2022-08-26T01:47:57.389Z,14.13
2022-08-26T01:50:30.143Z,13.10
2022-08-26T01:53:02.580Z,13.40
2022-08-26T01:55:33.055Z,11.82
2022-08-26T01:58:05.658Z,12.65
2022-08-26T02:00:33.694Z,11.90
2022-08-26T02:03:21.698Z,12.07
2022-08-26T02:06:01.172Z,11.63
2022-08-26T02:08:50.933Z,12.05
2022-08-26T02:11:18.552Z,13.10
2022-08-26T02:13:49.548Z,11.93
2022-08-26T02:16:22.040Z,12.60
2022-08-26T02:18:50.628Z,11.85
2022-08-26T02:21:20.688Z,13.07
2022-08-26T02:23:47.797Z,11.98
2022-08-26T02:26:19.259Z,12.43
2022-08-26T02:29:12.628Z,11.45
2022-08-26T02:31:42.096Z,12.60
2022-08-26T02:34:20.024Z,12.15
2022-08-26T02:36:47.443Z,11.80
2022-08-26T02:39:19.521Z,12.32
2022-08-26T02:41:50.147Z,11.93
2022-08-26T02:44:17.677Z,13.05
2022-08-26T02:46:46.837Z,11.38
2022-08-26T02:49:15.696Z,12.20
2022-08-26T02:51:44.398Z,14.38
2022-08-26T02:54:12.777Z,13.05
2022-08-26T02:56:40.315Z,12.02
2022-08-26T02:59:07.945Z,12.70
2022-08-26T03:01:37.088Z,13.70
2022-08-26T03:04:07.104Z,13.13
2022-08-26T03:06:34.331Z,12.90
2022-08-26T03:09:01.540Z,13.63
2022-08-26T03:11:33.051Z,14.00
2022-08-26T03:14:01.816Z,12.27
2022-08-26T03:16:37.882Z,11.93
2022-08-26T03:19:08.178Z,11.98
2022-08-26T03:21:38.197Z,11.43
2022-08-26T03:24:05.985Z,12.65
2022-08-26T03:26:33.179Z,11.15
2022-08-26T03:29:18.750Z,13.18
2022-08-26T03:31:46.955Z,11.65
2022-08-26T03:34:14.851Z,12.77
2022-08-26T03:36:42.464Z,12.30
2022-08-26T03:39:12.070Z,12.43
2022-08-26T03:41:40.686Z,11.82
2022-08-26T03:44:11.497Z,13.88
2022-08-26T03:46:39.659Z,12.02
2022-08-26T03:49:07.685Z,12.75
2022-08-26T03:51:38.680Z,11.10
2022-08-26T03:54:08.365Z,12.23
2022-08-26T03:56:36.850Z,12.00
2022-08-26T03:59:04.975Z,11.48
2022-08-26T04:01:35.264Z,11.30
2022-08-26T04:04:03.255Z,11.10
2022-08-26T04:06:32.121Z,11.32
2022-08-26T04:09:02.073Z,11.30
2022-08-26T04:11:34.206Z,11.55
2022-08-26T04:14:05.700Z,10.80
2022-08-26T04:16:33.085Z,10.95
2022-08-26T04:19:00.999Z,10.82
2022-08-26T04:21:29.020Z,10.15
2022-08-26T04:23:56.792Z,10.15
2022-08-26T04:26:26.090Z,10.32
2022-08-26T04:28:54.752Z,10.40
2022-08-26T04:31:22.386Z,9.77
2022-08-26T04:33:50.542Z,10.60
2022-08-26T04:36:20.204Z,10.82
2022-08-26T04:38:48.569Z,10.32
2022-08-26T04:41:16.813Z,10.45
2022-08-26T04:43:46.625Z,11.15
2022-08-26T04:46:22.750Z,10.35
2022-08-26T04:48:51.943Z,9.57
2022-08-26T04:51:22.274Z,10.10
2022-08-26T04:56:53.453Z,9.45
2022-08-26T04:59:20.675Z,9.55
2022-08-26T05:01:54.154Z,9.23
2022-08-26T05:04:22.320Z,9.63
2022-08-26T05:06:50.210Z,9.45
2022-08-26T05:09:21.048Z,9.85
2022-08-26T05:11:52.042Z,10.10
2022-08-26T05:14:25.727Z,10.30
2022-08-26T05:16:54.079Z,8.50
2022-08-26T05:19:21.260Z,8.30
2022-08-26T05:21:48.805Z,8.40
2022-08-26T05:24:18.672Z,8.73
2022-08-26T05:26:48.102Z,8.65
2022-08-26T05:29:16.074Z,8.68
2022-08-26T05:31:44.160Z,8.75
2022-08-26T05:34:11.301Z,8.63
2022-08-26T05:36:39.291Z,8.52
2022-08-26T05:39:07.371Z,7.93
2022-08-26T05:41:38.708Z,7.38
2022-08-26T05:46:37.037Z,8.57
2022-08-26T05:49:06.558Z,7.75
2022-08-26T05:51:45.353Z,7.90
2022-08-26T05:54:13.543Z,8.05
2022-08-26T05:56:42.427Z,7.85
2022-08-26T05:59:14.692Z,7.90
2022-08-26T06:01:43.933Z,8.10
2022-08-26T06:04:11.770Z,7.65
2022-08-26T06:06:42.871Z,8.45
2022-08-26T06:09:11.453Z,7.47
2022-08-26T06:11:39.197Z,7.07
2022-08-26T06:14:08.056Z,7.03
2022-08-26T06:16:38.742Z,8.00
2022-08-26T06:19:11.608Z,7.15
2022-08-26T06:21:42.588Z,7.30
2022-08-26T06:24:31.106Z,6.85
2022-08-26T06:27:02.040Z,6.57
2022-08-26T06:29:33.308Z,7.50
2022-08-26T06:32:02.977Z,7.53
2022-08-26T06:34:30.920Z,7.95
2022-08-26T06:37:03.269Z,6.95
2022-08-26T06:39:31.710Z,7.45
2022-08-26T06:42:01.100Z,7.28
2022-08-26T06:44:34.158Z,6.75
2022-08-26T06:47:01.618Z,7.75
2022-08-26T06:49:28.906Z,7.78
2022-08-26T06:51:59.899Z,7.50
2022-08-26T06:54:30.438Z,7.85
2022-08-26T06:56:58.089Z,7.53
2022-08-26T06:59:25.874Z,8.02
2022-08-26T07:01:53.329Z,7.72
2022-08-26T07:04:23.368Z,7.88
2022-08-26T07:06:53.567Z,7.47
2022-08-26T07:09:22.933Z,8.45
2022-08-26T07:11:51.623Z,8.52
2022-08-26T07:14:21.474Z,8.85
2022-08-26T07:16:50.459Z,7.97
2022-08-26T07:19:30.132Z,8.65
2022-08-26T07:22:04.220Z,8.77
2022-08-26T07:24:38.673Z,8.90
2022-08-26T07:27:08.883Z,8.70
2022-08-26T07:29:39.069Z,8.48
2022-08-26T07:32:06.964Z,8.77
2022-08-26T07:34:34.325Z,8.20
2022-08-26T07:37:02.028Z,8.73
2022-08-26T07:39:31.686Z,8.77
2022-08-26T07:42:01.724Z,8.68
2022-08-26T07:44:38.304Z,9.20
2022-08-26T07:47:10.260Z,7.65
2022-08-26T07:49:55.659Z,7.35
2022-08-26T07:52:26.602Z,8.50
2022-08-26T07:54:58.393Z,7.88
2022-08-26T07:57:26.502Z,8.77
2022-08-26T07:59:55.027Z,7.70
2022-08-26T08:02:24.642Z,8.48
2022-08-26T08:04:52.435Z,8.13
2022-08-26T08:07:19.700Z,9.05
2022-08-26T08:09:49.791Z,8.52
2022-08-26T08:12:18.457Z,7.80
2022-08-26T08:14:46.981Z,9.18
2022-08-26T08:17:16.503Z,9.48
2022-08-26T08:19:43.670Z,8.63
2022-08-26T08:22:17.948Z,10.90
2022-08-26T08:24:50.038Z,8.57
2022-08-26T08:27:23.807Z,8.18
2022-08-26T08:29:57.007Z,9.82
2022-08-26T08:32:24.211Z,9.93
2022-08-26T08:34:51.674Z,8.52
2022-08-26T08:37:19.268Z,8.23
2022-08-26T08:39:46.310Z,8.48
2022-08-26T08:42:31.128Z,8.45
2022-08-26T08:47:36.043Z,8.15
2022-08-26T08:50:23.936Z,8.45
2022-08-26T08:53:17.826Z,8.55
2022-08-26T08:56:23.756Z,9.45
2022-08-26T08:58:57.521Z,8.50
2022-08-26T09:01:36.574Z,8.43
2022-08-26T09:04:26.836Z,8.40
2022-08-26T09:09:46.233Z,8.47
2022-08-26T09:12:20.538Z,7.68
2022-08-26T09:15:30.424Z,7.38
2022-08-26T09:18:10.870Z,8.85
2022-08-26T09:20:55.494Z,7.50
2022-08-26T09:23:22.874Z,8.35
2022-08-26T09:28:24.449Z,7.57
2022-08-26T09:31:24.030Z,7.50
2022-08-26T09:34:17.026Z,7.47
2022-08-26T09:36:49.342Z,7.03
2022-08-26T09:39:28.284Z,8.18
2022-08-26T09:42:21.202Z,6.90
2022-08-26T09:45:06.594Z,7.63
2022-08-26T09:47:39.037Z,6.95
2022-08-26T09:50:32.404Z,7.10
2022-08-26T09:53:09.728Z,6.78
2022-08-26T09:55:39.614Z,7.80
2022-08-26T09:58:07.921Z,7.22
2022-08-26T10:00:40.279Z,6.80
2022-08-26T10:03:12.061Z,7.97
2022-08-26T10:05:54.722Z,7.68
2022-08-26T10:08:48.397Z,6.75
2022-08-26T10:11:41.786Z,6.50
2022-08-26T10:14:20.816Z,6.50
2022-08-26T10:17:01.495Z,6.72
2022-08-26T10:19:53.595Z,6.38
2022-08-26T10:22:45.839Z,6.93
2022-08-26T10:25:20.485Z,7.20
2022-08-26T10:28:00.685Z,6.95
2022-08-26T10:30:40.763Z,6.22
2022-08-26T10:33:15.629Z,6.50
2022-08-26T10:35:52.548Z,7.20
2022-08-26T10:38:28.743Z,6.88
2022-08-26T10:41:00.216Z,7.60
2022-08-26T10:43:33.215Z,7.53
2022-08-26T10:46:05.579Z,7.15
2022-08-26T10:49:00.065Z,6.32
2022-08-26T10:51:36.708Z,5.68
2022-08-26T10:54:11.811Z,6.00
2022-08-26T10:56:57.207Z,6.30
2022-08-26T10:59:36.806Z,6.88
2022-08-26T11:02:37.215Z,6.75
2022-08-26T11:05:18.802Z,7.00
2022-08-26T11:07:48.656Z,6.40
2022-08-26T11:10:16.496Z,6.95
2022-08-26T11:12:45.494Z,6.63
2022-08-26T11:15:26.566Z,6.80
2022-08-26T11:17:55.423Z,7.32
2022-08-26T11:20:33.527Z,6.80
2022-08-26T11:23:12.996Z,6.75
2022-08-26T11:26:01.259Z,7.07
2022-08-26T11:28:50.462Z,7.00
2022-08-26T11:31:26.519Z,6.35
2022-08-26T11:34:01.307Z,6.63
2022-08-26T11:36:47.868Z,6.78
2022-08-26T11:39:17.981Z,5.72
2022-08-26T11:41:52.770Z,5.70
2022-08-26T11:44:29.546Z,5.95
2022-08-26T11:47:00.263Z,6.03
2022-08-26T11:49:29.090Z,5.70
2022-08-26T11:52:16.811Z,5.88
2022-08-26T11:55:20.315Z,5.97
2022-08-26T11:57:54.735Z,6.45
2022-08-26T12:00:36.120Z,5.43
2022-08-26T12:03:09.539Z,6.05
2022-08-26T12:05:43.500Z,5.43
2022-08-26T12:08:16.414Z,5.88
2022-08-26T12:10:43.556Z,5.55
2022-08-26T12:13:22.445Z,6.43
2022-08-26T12:15:58.303Z,5.63
2022-08-26T12:18:31.778Z,6.20
2022-08-26T12:21:01.209Z,6.38
2022-08-26T12:23:36.911Z,6.38
2022-08-26T12:26:30.780Z,6.05
2022-08-26T12:28:58.483Z,5.90
2022-08-26T12:31:39.552Z,5.90
2022-08-26T12:34:17.445Z,5.93
2022-08-26T12:36:53.131Z,6.22
2022-08-26T12:39:31.568Z,6.00
2022-08-26T12:42:01.156Z,5.80
2022-08-26T12:44:42.339Z,5.93
2022-08-26T12:47:41.958Z,6.07
2022-08-26T12:50:23.740Z,5.82
2022-08-26T12:53:02.951Z,6.13
2022-08-26T12:55:32.956Z,5.65
2022-08-26T12:58:22.555Z,5.40
2022-08-26T13:00:55.554Z,5.38
2022-08-26T13:03:38.373Z,6.30
2022-08-26T13:06:27.923Z,7.13
2022-08-26T13:09:24.164Z,6.07
2022-08-26T13:11:53.331Z,6.13
2022-08-26T13:14:24.079Z,6.55
2022-08-26T13:16:52.973Z,7.13
2022-08-26T13:19:29.154Z,5.85
2022-08-26T13:21:58.460Z,5.90
2022-08-26T13:24:38.590Z,6.53
2022-08-26T13:27:08.321Z,5.50
2022-08-26T13:29:38.177Z,6.20
2022-08-26T13:32:07.183Z,6.60
2022-08-26T13:34:37.111Z,6.53
2022-08-26T13:37:07.023Z,6.38
2022-08-26T13:39:36.988Z,6.47
2022-08-26T13:42:04.425Z,6.82
2022-08-26T13:44:43.083Z,8.15
2022-08-26T13:47:17.284Z,7.30
2022-08-26T13:49:44.649Z,6.93
2022-08-26T13:52:12.697Z,7.35
2022-08-26T13:54:41.762Z,6.43
2022-08-26T13:57:10.046Z,7.07
2022-08-26T13:59:54.666Z,6.20
2022-08-26T14:02:22.667Z,6.88
2022-08-26T14:05:02.724Z,6.85
2022-08-26T14:07:33.126Z,6.28
2022-08-26T14:10:02.589Z,6.65
2022-08-26T14:12:29.851Z,6.80
2022-08-26T14:14:56.974Z,6.40
2022-08-26T14:17:26.344Z,6.78
2022-08-26T14:19:58.084Z,7.93
2022-08-26T14:22:25.393Z,6.78
2022-08-26T14:24:52.501Z,6.30
2022-08-26T14:27:19.862Z,6.75
2022-08-26T14:29:47.027Z,7.40
2022-08-26T14:32:28.864Z,6.80
2022-08-26T14:34:56.579Z,6.72
2022-08-26T14:37:24.171Z,6.55
2022-08-26T14:39:51.735Z,6.10
2022-08-26T14:42:27.815Z,5.63
2022-08-26T14:45:02.165Z,6.50
2022-08-26T14:47:31.039Z,6.30
2022-08-26T14:49:58.120Z,7.07
2022-08-26T14:52:25.675Z,6.50
2022-08-26T14:54:55.279Z,6.15
2022-08-26T14:57:22.554Z,6.35
2022-08-26T14:59:50.594Z,6.07
2022-08-26T15:02:27.717Z,6.15
2022-08-26T15:05:02.304Z,7.30
2022-08-26T15:07:29.315Z,6.80
2022-08-26T15:09:56.419Z,6.18
2022-08-26T15:12:23.509Z,7.22
2022-08-26T15:14:51.190Z,6.60
2022-08-26T15:17:18.289Z,6.68
2022-08-26T15:19:45.376Z,7.00
2022-08-26T15:22:12.898Z,7.00
2022-08-26T15:24:42.422Z,6.80
2022-08-26T15:27:09.741Z,7.07
2022-08-26T15:29:37.625Z,6.82
2022-08-26T15:32:08.300Z,7.55
2022-08-26T15:34:35.601Z,7.72
2022-08-26T15:37:02.870Z,7.28
2022-08-26T15:39:30.007Z,7.35
2022-08-26T15:41:57.207Z,7.95
2022-08-26T15:44:29.209Z,7.28
2022-08-26T15:46:58.866Z,8.13
2022-08-26T15:49:27.639Z,8.55
2022-08-26T15:51:55.144Z,7.85
2022-08-26T15:54:24.371Z,8.18
2022-08-26T15:56:52.589Z,7.95
2022-08-26T15:59:21.688Z,7.60
2022-08-26T16:01:48.886Z,7.53
2022-08-26T16:04:16.085Z,7.93
2022-08-26T16:06:43.707Z,8.02
2022-08-26T16:09:11.274Z,7.75
2022-08-26T16:11:38.787Z,8.25
2022-08-26T16:14:06.373Z,9.75
2022-08-26T16:16:33.940Z,8.30
2022-08-26T16:19:06.843Z,9.73
2022-08-26T16:21:35.458Z,8.73
2022-08-26T16:24:03.563Z,9.82
2022-08-26T16:26:33.553Z,8.80
2022-08-26T16:29:04.956Z,9.80
2022-08-26T16:31:32.402Z,8.68
2022-08-26T16:33:59.760Z,8.90
2022-08-26T16:36:26.915Z,8.68
2022-08-26T16:38:56.567Z,9.48
2022-08-26T16:41:25.153Z,9.48
2022-08-26T16:43:54.722Z,9.13
2022-08-26T16:46:25.900Z,8.73
2022-08-26T16:48:57.711Z,9.15
2022-08-26T16:51:27.341Z,9.63
2022-08-26T16:53:57.816Z,9.10
2022-08-26T16:56:30.632Z,9.93
2022-08-26T16:59:02.922Z,9.93
2022-08-26T17:01:30.907Z,8.80
2022-08-26T17:03:58.056Z,9.77
2022-08-26T17:06:25.178Z,9.75
2022-08-26T17:08:52.646Z,9.75
2022-08-26T17:11:19.875Z,9.95
2022-08-26T17:13:47.401Z,10.82
2022-08-26T17:16:15.195Z,10.73
2022-08-26T17:18:42.639Z,11.13
2022-08-26T17:21:12.408Z,9.55
2022-08-26T17:23:43.108Z,10.63
2022-08-26T17:26:12.391Z,9.73
2022-08-26T17:28:40.103Z,9.35
2022-08-26T17:31:08.453Z,10.30
2022-08-26T17:33:36.019Z,10.90
2022-08-26T17:36:06.557Z,10.65
2022-08-26T17:38:33.911Z,11.82
2022-08-26T17:41:01.180Z,11.48
2022-08-26T17:43:28.554Z,11.18
2022-08-26T17:46:06.974Z,12.02
2022-08-26T17:48:36.315Z,13.18
2022-08-26T17:51:09.709Z,11.77
2022-08-26T17:53:37.711Z,11.20
2022-08-26T17:56:10.833Z,10.93
2022-08-26T17:58:51.351Z,10.90
2022-08-26T18:01:27.552Z,11.35
2022-08-26T18:04:00.290Z,10.70
2022-08-26T18:06:29.380Z,11.07
2022-08-26T18:08:58.298Z,12.13
2022-08-26T18:11:29.262Z,17.23
2022-08-26T18:13:56.544Z,25.10
2022-08-26T18:16:24.629Z,30.52
2022-08-26T18:18:53.551Z,26.77
2022-08-26T18:21:24.618Z,16.50
2022-08-26T18:23:52.236Z,30.55
2022-08-26T18:26:35.066Z,27.83
2022-08-26T18:29:03.387Z,21.58
2022-08-26T18:31:31.123Z,18.15
2022-08-26T18:34:02.212Z,16.55
2022-08-26T18:36:36.912Z,13.18
2022-08-26T18:39:05.730Z,13.88
2022-08-26T18:41:34.890Z,12.18
2022-08-26T18:44:03.538Z,12.63
2022-08-26T18:46:38.482Z,12.43
2022-08-26T18:49:09.743Z,11.88
2022-08-26T18:51:38.105Z,12.63
2022-08-26T18:54:08.815Z,13.38
2022-08-26T18:56:37.632Z,14.00
2022-08-26T18:59:07.646Z,13.57
2022-08-26T19:01:36.245Z,27.80
2022-08-26T19:04:05.591Z,25.30
2022-08-26T19:06:35.720Z,16.90
2022-08-26T19:09:05.847Z,14.77
2022-08-26T19:11:37.440Z,13.18
2022-08-26T19:14:16.050Z,15.10
2022-08-26T19:16:46.832Z,17.30
2022-08-26T19:19:15.368Z,15.43
2022-08-26T19:21:42.778Z,15.30
2022-08-26T19:24:15.698Z,12.88
2022-08-26T19:26:48.598Z,17.85
2022-08-26T19:29:20.644Z,16.25
2022-08-26T19:31:47.991Z,13.60
2022-08-26T19:34:16.482Z,15.05
2022-08-26T19:36:47.839Z,13.95
2022-08-26T19:39:15.354Z,15.30
2022-08-26T19:41:42.549Z,16.20
2022-08-26T19:44:35.978Z,14.57
2022-08-26T19:47:03.899Z,14.88
2022-08-26T19:49:31.376Z,12.70
2022-08-26T19:51:58.555Z,12.48
2022-08-26T19:54:25.704Z,11.77
2022-08-26T19:56:52.971Z,12.70
2022-08-26T19:59:20.821Z,11.95
2022-08-26T20:02:00.715Z,11.55
2022-08-26T20:04:30.985Z,12.15
2022-08-26T20:07:01.348Z,12.25
2022-08-26T20:09:30.052Z,12.13
2022-08-26T20:11:57.582Z,10.98
2022-08-26T20:14:28.672Z,12.27
2022-08-26T20:16:57.042Z,11.13
2022-08-26T20:19:42.592Z,10.18
2022-08-26T20:22:10.345Z,11.55
2022-08-26T20:24:41.322Z,11.65
2022-08-26T20:27:10.793Z,11.15
2022-08-26T20:29:38.521Z,10.75
2022-08-26T20:32:08.082Z,11.98
2022-08-26T20:34:41.876Z,12.45
2022-08-26T20:37:09.371Z,12.18
2022-08-26T20:39:37.214Z,11.10
2022-08-26T20:42:06.826Z,11.00
2022-08-26T20:44:54.685Z,10.50
2022-08-26T20:47:25.247Z,10.25
2022-08-26T20:49:56.394Z,10.48
2022-08-26T20:52:23.635Z,10.75
2022-08-26T20:54:50.804Z,10.77
2022-08-26T20:57:18.170Z,11.13
2022-08-26T20:59:45.337Z,10.60
2022-08-26T21:02:12.409Z,10.80
2022-08-26T21:04:39.590Z,11.13
2022-08-26T21:07:06.858Z,11.90
2022-08-26T21:09:33.957Z,9.98
2022-08-26T21:12:01.603Z,10.27
2022-08-26T21:14:28.849Z,10.40
2022-08-26T21:16:57.106Z,9.73
2022-08-26T21:19:24.314Z,9.50
2022-08-26T21:21:51.553Z,10.50
2022-08-26T21:24:18.703Z,9.75
2022-08-26T21:26:46.418Z,10.57
2022-08-26T21:29:14.443Z,11.27
2022-08-26T21:31:46.103Z,9.20
2022-08-26T21:34:19.001Z,11.00
2022-08-26T21:36:47.401Z,10.40
2022-08-26T21:39:18.250Z,10.23
2022-08-26T21:41:47.376Z,10.52
2022-08-26T21:44:16.645Z,9.60
2022-08-26T21:46:45.385Z,11.30
2022-08-26T21:49:16.011Z,9.65
2022-08-26T21:51:46.169Z,9.82
2022-08-26T21:54:20.038Z,10.38
2022-08-26T21:56:52.975Z,9.35
2022-08-26T21:59:22.637Z,9.13
2022-08-26T22:01:51.576Z,9.95
2022-08-26T22:04:18.872Z,10.35
2022-08-26T22:06:52.893Z,10.07
2022-08-26T22:09:27.257Z,10.02
2022-08-26T22:11:57.013Z,9.73
2022-08-26T22:14:30.634Z,10.80
2022-08-26T22:17:07.421Z,9.40
2022-08-26T22:19:46.488Z,9.68
2022-08-26T22:22:16.979Z,9.40
2022-08-26T22:24:48.297Z,9.52
2022-08-26T22:27:15.402Z,9.70
2022-08-26T22:29:43.617Z,9.77
2022-08-26T22:32:11.344Z,10.88
2022-08-26T22:34:40.778Z,10.73
2022-08-26T22:37:10.520Z,9.95
2022-08-26T22:39:37.893Z,10.63
2022-08-26T22:42:08.766Z,9.55
2022-08-26T22:44:37.617Z,9.77
2022-08-26T22:47:07.371Z,9.95
2022-08-26T22:49:37.210Z,10.75
2022-08-26T22:52:06.732Z,10.13
2022-08-26T22:54:35.177Z,9.60
2022-08-26T22:57:02.528Z,10.57
2022-08-26T22:59:37.770Z,10.80
2022-08-26T23:02:11.113Z,10.05
2022-08-26T23:04:40.372Z,9.80
2022-08-26T23:07:12.375Z,10.35
2022-08-26T23:09:45.272Z,10.77
2022-08-26T23:12:12.649Z,9.68
2022-08-26T23:14:41.458Z,9.88
2022-08-26T23:17:14.833Z,10.52
2022-08-26T23:19:42.028Z,10.73
2022-08-26T23:22:09.188Z,10.55
2022-08-26T23:24:36.251Z,9.60
2022-08-26T23:27:03.964Z,10.60
2022-08-26T23:29:32.231Z,10.38
2022-08-26T23:31:59.431Z,10.43
2022-08-26T23:34:45.083Z,10.70
2022-08-26T23:37:13.934Z,10.73
2022-08-26T23:39:41.096Z,10.07
2022-08-26T23:42:08.773Z,10.23
2022-08-26T23:44:38.346Z,9.43
2022-08-26T23:47:06.531Z,11.02
2022-08-26T23:49:34.472Z,10.00
2022-08-26T23:52:20.465Z,10.68
2022-08-26T23:54:48.836Z,10.55
2022-08-26T23:57:20.594Z,10.52
2022-08-26T23:59:48.676Z,11.48
